Time;durP1;ratioP1;P1;durP2;ratioP2;P2;SDS_P1;SDS_P2;PMS_P1;PMS_P2;Temp;Humidity;BMP_temperature;BMP_pressure;BME280_temperature;BME280_humidity;BME280_pressure;Samples;Min_cycle;Max_cycle;Signal;HPM_P1;HPM_P2
2022/01/14 00:07:04;;;;;;;44.55;17.65;;;-1.70;99.90;;;;;;20856730;28;20116;-79
2022/01/14 00:17:10;;;;;;;47.92;17.20;;;-1.70;99.90;;;;;;20854845;28;20036;-79
2022/01/14 00:37:33;;;;;;;49.50;17.80;;;-1.80;99.90;;;;;;20851807;28;20033;-81
2022/01/14 00:47:37;;;;;;;55.33;19.38;;;-2.10;99.90;;;;;;20851511;28;20064;-80
2022/01/14 01:08:09;;;;;;;38.70;14.93;;;-2.10;99.90;;;;;;20849321;28;20042;-81
2022/01/14 01:18:10;;;;;;;52.72;21.13;;;-2.10;99.90;;;;;;20846280;28;20421;-80
2022/01/14 01:28:11;;;;;;;36.03;14.13;;;-2.00;99.90;;;;;;20846085;28;20406;-79
2022/01/14 01:38:16;;;;;;;48.13;18.02;;;-2.20;99.90;;;;;;20844290;28;20036;-79
2022/01/14 01:48:17;;;;;;;43.13;17.52;;;-2.10;99.90;;;;;;20842563;28;20037;-78
2022/01/14 01:58:18;;;;;;;47.10;20.08;;;-2.10;99.90;;;;;;20824742;28;20117;-78
2022/01/14 02:08:19;;;;;;;48.17;19.38;;;-2.10;99.90;;;;;;20840383;28;20030;-78
2022/01/14 02:18:46;;;;;;;52.22;21.10;;;-2.20;99.90;;;;;;20821861;28;20076;-80
2022/01/14 02:28:49;;;;;;;54.53;20.58;;;-2.30;99.90;;;;;;20824457;28;20124;-78
2022/01/14 02:38:50;;;;;;;66.82;23.63;;;-2.40;99.90;;;;;;20842018;28;20096;-79
2022/01/14 02:48:51;;;;;;;66.20;23.65;;;-2.30;99.90;;;;;;20838687;28;20041;-79
2022/01/14 02:58:52;;;;;;;50.92;20.30;;;-2.30;99.90;;;;;;20834891;28;20032;-79
2022/01/14 03:08:54;;;;;;;56.95;21.23;;;-2.30;99.90;;;;;;20816559;28;20030;-79
2022/01/14 03:19:05;;;;;;;64.45;21.23;;;-2.50;99.90;;;;;;20819295;28;20037;-79
2022/01/14 03:29:06;;;;;;;55.55;20.10;;;-2.40;99.90;;;;;;20849499;28;20121;-80
2022/01/14 03:39:07;;;;;;;59.38;20.85;;;-2.40;99.90;;;;;;20842381;28;20033;-79
2022/01/14 03:49:08;;;;;;;62.53;22.73;;;-2.60;99.90;;;;;;20823315;22;20428;-74
2022/01/14 03:59:09;;;;;;;53.55;22.13;;;-2.60;99.90;;;;;;20755420;28;20038;-73
2022/01/14 04:09:10;;;;;;;58.28;22.40;;;-2.60;99.90;;;;;;20750797;28;20025;-74
2022/01/14 04:19:11;;;;;;;52.63;21.48;;;-2.70;99.90;;;;;;20754692;28;20034;-74
2022/01/14 04:29:11;;;;;;;56.10;22.90;;;-2.60;99.90;;;;;;20753697;28;20483;-74
2022/01/14 04:39:12;;;;;;;59.55;23.52;;;-2.60;99.90;;;;;;20751724;28;20041;-74
2022/01/14 04:49:13;;;;;;;56.30;23.83;;;-2.70;99.90;;;;;;20749541;28;20041;-73
2022/01/14 04:59:14;;;;;;;76.72;29.45;;;-2.90;99.90;;;;;;20747475;28;20026;-72
2022/01/14 05:09:26;;;;;;;77.55;28.98;;;-2.90;99.90;;;;;;20746098;28;20036;-73
2022/01/14 05:19:27;;;;;;;93.60;35.15;;;-2.90;99.90;;;;;;20747591;28;20041;-74
2022/01/14 05:29:28;;;;;;;83.70;30.25;;;-2.80;99.90;;;;;;20747265;28;20029;-72
2022/01/14 05:39:29;;;;;;;77.72;29.00;;;-2.70;99.90;;;;;;20746473;28;20399;-72
2022/01/14 05:49:30;;;;;;;80.22;28.52;;;-2.60;99.90;;;;;;20745775;28;20116;-73
2022/01/14 05:59:31;;;;;;;79.00;30.63;;;-2.60;99.90;;;;;;20744899;28;20073;-72
2022/01/14 06:09:32;;;;;;;73.93;28.23;;;-2.60;99.90;;;;;;20744734;28;20030;-72
2022/01/14 06:19:33;;;;;;;78.38;28.35;;;-2.60;99.90;;;;;;20744024;28;20079;-72
2022/01/14 06:29:34;;;;;;;76.63;27.30;;;-2.60;99.90;;;;;;20740731;28;20030;-73
2022/01/14 06:39:34;;;;;;;72.38;27.70;;;-2.60;99.90;;;;;;20743121;28;20463;-72
2022/01/14 06:49:35;;;;;;;76.13;27.98;;;-2.70;99.90;;;;;;20748282;28;20041;-72
2022/01/14 06:59:36;;;;;;;90.90;29.38;;;-2.70;99.90;;;;;;20741637;28;20109;-72
2022/01/14 07:09:55;;;;;;;76.10;28.15;;;-2.80;99.90;;;;;;20743529;28;20025;-73
2022/01/14 07:20:00;;;;;;;79.40;28.52;;;-2.90;99.90;;;;;;20757298;28;20396;-72
2022/01/14 07:30:02;;;;;;;71.82;26.80;;;-2.80;99.90;;;;;;20756491;28;20033;-72
2022/01/14 07:40:04;;;;;;;78.30;28.52;;;-2.80;99.90;;;;;;20738304;28;20512;-72
2022/01/14 07:50:05;;;;;;;64.22;25.88;;;-2.50;99.90;;;;;;20737059;28;20080;-74
2022/01/14 08:00:07;;;;;;;60.78;25.15;;;-2.30;99.90;;;;;;20754641;28;20068;-73
2022/01/14 08:10:09;;;;;;;68.50;25.15;;;-1.80;99.90;;;;;;20753293;28;20510;-73
2022/01/14 08:20:10;;;;;;;65.20;27.42;;;-1.70;99.90;;;;;;20753233;28;20548;-72
2022/01/14 08:30:11;;;;;;;64.03;24.92;;;-1.70;99.90;;;;;;20759191;28;20056;-73
2022/01/14 08:40:12;;;;;;;57.97;24.52;;;-1.10;99.90;;;;;;20751416;28;20022;-74
2022/01/14 08:50:13;;;;;;;60.80;23.45;;;-0.70;99.90;;;;;;20751576;28;20028;-75
2022/01/14 09:00:16;;;;;;;54.75;21.55;;;-0.10;99.90;;;;;;20748406;28;20069;-74
2022/01/14 09:10:18;;;;;;;51.78;20.48;;;0.00;99.90;;;;;;20748687;28;20041;-74
2022/01/14 09:20:19;;;;;;;43.30;18.60;;;1.30;99.90;;;;;;20746795;28;20101;-75
2022/01/14 09:30:22;;;;;;;44.45;20.10;;;1.20;99.90;;;;;;20747687;28;20111;-74
2022/01/14 09:40:23;;;;;;;39.30;17.75;;;1.70;99.90;;;;;;20746096;28;20122;-73
2022/01/14 09:50:25;;;;;;;46.58;18.13;;;2.10;99.90;;;;;;20753028;22;20076;-76
2022/01/14 10:00:26;;;;;;;48.47;20.05;;;3.20;99.90;;;;;;20743828;28;20042;-76
2022/01/14 10:10:28;;;;;;;;;;;3.20;99.90;;;;;;20745031;28;20061;-76
2022/01/14 10:20:37;;;;;;;44.13;19.92;;;3.20;99.90;;;;;;20742987;28;19920;-76
2022/01/14 10:30:43;;;;;;;42.60;20.95;;;3.20;99.90;;;;;;20743839;28;20572;-76
2022/01/14 10:40:53;;;;;;;48.25;22.08;;;3.90;99.90;;;;;;20743272;28;20112;-75
2022/01/14 10:50:59;;;;;;;51.17;22.77;;;3.90;99.90;;;;;;20757915;28;20053;-76
2022/01/14 11:01:05;;;;;;;52.88;24.90;;;4.70;99.90;;;;;;20758807;28;20029;-76
2022/01/14 11:11:06;;;;;;;45.88;21.55;;;4.80;99.90;;;;;;20758460;28;20451;-75
2022/01/14 11:31:32;;;;;;;53.75;25.52;;;6.30;99.90;;;;;;20757057;28;20034;-76
2022/01/14 11:42:12;;;;;;;59.00;26.23;;;5.80;99.90;;;;;;20754843;28;20037;-76
2022/01/14 11:52:13;;;;;;;55.17;26.77;;;5.60;99.90;;;;;;20755197;28;20500;-76
2022/01/14 12:02:29;;;;;;;56.17;24.50;;;5.60;99.90;;;;;;20753666;28;20067;-77
2022/01/14 12:12:31;;;;;;;53.00;25.10;;;7.10;99.90;;;;;;20753787;28;20465;-76
2022/01/14 12:22:32;;;;;;;53.83;26.63;;;7.00;99.90;;;;;;20753274;28;20558;-76
2022/01/14 12:32:37;;;;;;;52.17;24.80;;;7.10;99.90;;;;;;20751318;28;20037;-76
2022/01/14 12:42:39;;;;;;;61.28;27.10;;;8.10;99.90;;;;;;20751475;28;20034;-77
2022/01/14 12:52:50;;;;;;;54.70;24.85;;;7.80;99.90;;;;;;20750663;28;20121;-77
2022/01/14 13:02:51;;;;;;;49.97;24.50;;;7.80;99.90;;;;;;20750279;28;20369;-77
2022/01/14 13:12:52;;;;;;;52.43;23.23;;;7.50;99.90;;;;;;20746643;28;20034;-77
2022/01/14 13:22:53;;;;;;;48.80;23.60;;;7.50;99.90;;;;;;20748331;28;20080;-76
2022/01/14 13:32:57;;;;;;;50.17;24.20;;;7.50;99.90;;;;;;20746093;28;20129;-75
2022/01/14 13:43:10;;;;;;;50.33;24.85;;;7.70;99.90;;;;;;20746700;28;20093;-76
2022/01/14 13:53:14;;;;;;;47.30;24.00;;;7.90;99.90;;;;;;20698086;28;20034;-76
2022/01/14 14:03:27;;;;;;;46.22;23.00;;;8.00;99.90;;;;;;20639640;28;20589;-76
2022/01/14 14:15:39;;;;;;;48.33;24.05;;;7.70;99.90;;;;;;20674607;28;20089;-76
2022/01/14 14:23:56;;;;;;;45.72;22.67;;;7.50;99.90;;;;;;20643135;28;20041;-75
2022/01/14 14:33:58;;;;;;;48.42;22.73;;;7.30;99.90;;;;;;20642101;28;20062;-76
2022/01/14 14:44:00;;;;;;;53.80;24.20;;;7.20;99.90;;;;;;20656634;28;20097;-76
2022/01/14 14:54:00;;;;;;;56.83;23.97;;;6.50;99.90;;;;;;20605648;28;20034;-76
2022/01/14 15:04:01;;;;;;;48.93;23.70;;;7.00;99.90;;;;;;20608886;28;20042;-76
2022/01/14 15:14:04;;;;;;;44.37;22.60;;;6.90;99.90;;;;;;20615254;28;20027;-75
2022/01/14 15:24:06;;;;;;;51.45;23.30;;;6.70;99.90;;;;;;20617057;28;20038;-76
2022/01/14 15:34:07;;;;;;;47.47;24.25;;;7.00;99.90;;;;;;20623126;28;20551;-76
2022/01/14 15:44:08;;;;;;;50.35;23.55;;;5.60;99.90;;;;;;20649971;28;20042;-76
2022/01/14 15:54:09;;;;;;;;;;;3.90;99.90;;;;;;20834610;22;20048;-75
2022/01/14 16:04:10;;;;;;;54.45;24.58;;;3.20;99.90;;;;;;20859912;28;19921;-75
2022/01/14 16:14:21;;;;;;;;;;;2.90;99.90;;;;;;20834655;28;20037;-75
2022/01/14 16:24:22;;;;;;;58.58;24.70;;;2.70;99.90;;;;;;20832369;28;20003;-75
2022/01/14 16:34:23;;;;;;;56.13;24.20;;;2.40;99.90;;;;;;20815768;28;20037;-75
2022/01/14 16:44:24;;;;;;;62.47;24.50;;;2.20;99.90;;;;;;20837253;28;20371;-74
2022/01/14 16:54:26;;;;;;;53.17;22.90;;;1.80;99.90;;;;;;20817500;28;20040;-74
2022/01/14 17:04:27;;;;;;;58.60;24.05;;;1.70;99.90;;;;;;20843321;28;20078;-74
2022/01/14 17:14:28;;;;;;;64.10;23.60;;;1.50;99.90;;;;;;20828931;28;20657;-74
2022/01/14 17:24:29;;;;;;;59.60;25.23;;;1.40;99.90;;;;;;20833777;28;20524;-75
2022/01/14 17:34:31;;;;;;;59.00;23.13;;;1.30;99.90;;;;;;20861329;28;20090;-75
2022/01/14 17:44:32;;;;;;;54.15;22.48;;;1.20;99.90;;;;;;20830887;28;20037;-75
2022/01/14 17:54:33;;;;;;;63.10;25.13;;;1.20;99.90;;;;;;20826530;28;20045;-75
2022/01/14 18:04:37;;;;;;;54.38;23.67;;;0.90;99.90;;;;;;20808831;28;20037;-74
2022/01/14 18:14:38;;;;;;;58.38;23.80;;;0.70;99.90;;;;;;20825961;28;20039;-74
2022/01/14 18:24:40;;;;;;;54.40;24.50;;;0.70;99.90;;;;;;20825547;28;20436;-75
2022/01/14 18:34:41;;;;;;;59.63;23.98;;;0.60;99.90;;;;;;20824776;28;20029;-74
2022/01/14 18:44:41;;;;;;;59.45;24.75;;;0.60;99.90;;;;;;20824467;28;20072;-74
2022/01/14 18:54:42;;;;;;;56.40;22.58;;;0.50;99.90;;;;;;20806314;28;20483;-74
2022/01/14 19:04:43;;;;;;;51.00;20.98;;;0.30;99.90;;;;;;20826441;28;20032;-75
2022/01/14 19:14:44;;;;;;;51.85;20.65;;;0.20;99.90;;;;;;20839537;28;20088;-74
2022/01/14 19:24:46;;;;;;;58.97;22.40;;;0.40;99.90;;;;;;20838666;28;20601;-74
2022/01/14 19:34:47;;;;;;;50.40;20.83;;;0.30;99.90;;;;;;20820034;28;20033;-75
2022/01/14 19:44:48;;;;;;;44.38;17.55;;;0.30;99.90;;;;;;20837079;28;20022;-74
2022/01/14 19:54:49;;;;;;;44.97;18.63;;;0.10;99.90;;;;;;20836157;28;20029;-73
2022/01/14 20:04:49;;;;;;;42.67;18.50;;;0.10;99.90;;;;;;20835693;28;20026;-74
2022/01/14 20:14:50;;;;;;;58.67;24.13;;;0.10;99.90;;;;;;20834418;28;20033;-73
2022/01/14 20:24:51;;;;;;;60.20;21.48;;;0.10;99.90;;;;;;20833884;28;20567;-74
2022/01/14 20:34:52;;;;;;;58.72;24.65;;;0.10;99.90;;;;;;20833483;28;20062;-74
2022/01/14 20:45:05;;;;;;;49.70;21.90;;;0.00;99.90;;;;;;20832347;28;20395;-74
2022/01/14 20:55:07;;;;;;;48.40;20.67;;;0.00;99.90;;;;;;20831488;28;20041;-74
2022/01/14 21:05:09;;;;;;;52.20;21.05;;;-0.20;99.90;;;;;;20831048;28;20108;-75
2022/01/14 21:15:10;;;;;;;50.85;21.85;;;-0.10;99.90;;;;;;20830607;28;20033;-74
2022/01/14 21:25:13;;;;;;;46.40;21.33;;;-0.10;99.90;;;;;;20829490;28;20099;-73
2022/01/14 21:35:14;;;;;;;43.55;18.23;;;-0.30;99.90;;;;;;20827892;28;20084;-74
2022/01/14 21:45:16;;;;;;;50.60;20.65;;;-0.30;99.90;;;;;;20844444;28;20491;-75
2022/01/14 21:55:18;;;;;;;37.83;18.40;;;-0.30;99.90;;;;;;20771557;23;20073;-75
2022/01/14 22:05:19;;;;;;;54.60;22.10;;;-0.40;99.90;;;;;;20703328;28;20377;-74
2022/01/14 22:15:28;;;;;;;55.33;22.33;;;-0.50;99.90;;;;;;20702420;28;20054;-75
2022/01/14 22:25:29;;;;;;;50.47;21.35;;;-0.50;99.90;;;;;;20701674;28;20136;-76
2022/01/14 22:35:30;;;;;;;53.70;20.08;;;-0.60;99.90;;;;;;20701522;28;20030;-76
2022/01/14 22:45:35;;;;;;;42.83;17.67;;;-0.80;99.90;;;;;;20698702;28;20121;-74
2022/01/14 22:55:37;;;;;;;35.22;15.10;;;-0.70;99.90;;;;;;20739375;28;20117;-75
2022/01/14 23:05:38;;;;;;;42.75;17.50;;;-0.70;99.90;;;;;;20741988;28;20037;-75
2022/01/14 23:15:39;;;;;;;32.65;15.05;;;-0.70;99.90;;;;;;20741469;28;20496;-75
2022/01/14 23:25:40;;;;;;;42.50;15.95;;;-0.70;99.90;;;;;;20705507;28;20027;-75
2022/01/14 23:35:41;;;;;;;37.25;15.55;;;-0.80;99.90;;;;;;20696345;28;20119;-74
2022/01/14 23:55:55;;;;;;;51.80;21.85;;;-1.00;99.90;;;;;;20704807;28;20034;-74
